sensor_id;sensor_type;location;lat;lon;timestamp;temperature;humidity
78463;SHT31;67756;51.982;5.648;2024-02-15T00:00:13;14.6;79.3
78463;SHT31;67756;51.982;5.648;2024-02-15T00:02:44;14.7;79.2
78463;SHT31;67756;51.982;5.648;2024-02-15T00:05:13;14.7;78.7
78463;SHT31;67756;51.982;5.648;2024-02-15T00:07:42;14.8;78.4
78463;SHT31;67756;51.982;5.648;2024-02-15T00:10:14;14.8;78.2
78463;SHT31;67756;51.982;5.648;2024-02-15T00:12:43;14.8;78.1
78463;SHT31;67756;51.982;5.648;2024-02-15T00:15:14;14.8;78.3
78463;SHT31;67756;51.982;5.648;2024-02-15T00:17:43;14.8;78.5
78463;SHT31;67756;51.982;5.648;2024-02-15T00:20:14;14.8;78.4
78463;SHT31;67756;51.982;5.648;2024-02-15T00:22:44;14.8;78.2
78463;SHT31;67756;51.982;5.648;2024-02-15T00:25:15;14.9;77.9
78463;SHT31;67756;51.982;5.648;2024-02-15T00:27:46;14.9;77.8
78463;SHT31;67756;51.982;5.648;2024-02-15T00:30:18;15.0;77.6
78463;SHT31;67756;51.982;5.648;2024-02-15T00:32:51;15.0;77.5
78463;SHT31;67756;51.982;5.648;2024-02-15T00:35:19;15.1;77.4
78463;SHT31;67756;51.982;5.648;2024-02-15T00:37:48;15.1;77.1
78463;SHT31;67756;51.982;5.648;2024-02-15T00:40:21;15.1;76.9
78463;SHT31;67756;51.982;5.648;2024-02-15T00:42:51;15.2;76.6
78463;SHT31;67756;51.982;5.648;2024-02-15T00:45:19;15.2;76.3
78463;SHT31;67756;51.982;5.648;2024-02-15T00:47:50;15.2;76.3
78463;SHT31;67756;51.982;5.648;2024-02-15T00:50:20;15.1;76.5
78463;SHT31;67756;51.982;5.648;2024-02-15T00:52:48;15.1;76.7
78463;SHT31;67756;51.982;5.648;2024-02-15T00:55:17;15.0;76.8
78463;SHT31;67756;51.982;5.648;2024-02-15T00:57:45;14.9;77.2
78463;SHT31;67756;51.982;5.648;2024-02-15T01:00:15;14.9;77.6
78463;SHT31;67756;51.982;5.648;2024-02-15T01:02:43;14.8;77.7
78463;SHT31;67756;51.982;5.648;2024-02-15T01:05:13;14.8;77.9
78463;SHT31;67756;51.982;5.648;2024-02-15T01:07:42;14.7;78.6
78463;SHT31;67756;51.982;5.648;2024-02-15T01:10:11;14.7;78.9
78463;SHT31;67756;51.982;5.648;2024-02-15T01:12:39;14.7;78.5
78463;SHT31;67756;51.982;5.648;2024-02-15T01:15:08;14.7;78.4
78463;SHT31;67756;51.982;5.648;2024-02-15T01:17:37;14.7;78.5
78463;SHT31;67756;51.982;5.648;2024-02-15T01:20:17;14.6;78.9
78463;SHT31;67756;51.982;5.648;2024-02-15T01:22:47;14.7;78.8
78463;SHT31;67756;51.982;5.648;2024-02-15T01:25:18;14.7;78.8
78463;SHT31;67756;51.982;5.648;2024-02-15T01:27:47;14.7;78.6
78463;SHT31;67756;51.982;5.648;2024-02-15T01:30:16;14.7;78.6
78463;SHT31;67756;51.982;5.648;2024-02-15T01:32:45;14.6;78.5
78463;SHT31;67756;51.982;5.648;2024-02-15T01:35:14;14.6;78.7
78463;SHT31;67756;51.982;5.648;2024-02-15T01:37:42;14.6;78.7
78463;SHT31;67756;51.982;5.648;2024-02-15T01:40:12;14.6;78.9
78463;SHT31;67756;51.982;5.648;2024-02-15T01:42:41;14.5;79.0
78463;SHT31;67756;51.982;5.648;2024-02-15T01:45:12;14.5;79.2
78463;SHT31;67756;51.982;5.648;2024-02-15T01:47:41;14.5;79.8
78463;SHT31;67756;51.982;5.648;2024-02-15T01:50:15;14.5;79.7
78463;SHT31;67756;51.982;5.648;2024-02-15T01:52:52;14.6;79.4
78463;SHT31;67756;51.982;5.648;2024-02-15T01:55:23;14.6;78.7
78463;SHT31;67756;51.982;5.648;2024-02-15T01:57:53;14.6;78.6
78463;SHT31;67756;51.982;5.648;2024-02-15T02:00:21;14.6;78.5
78463;SHT31;67756;51.982;5.648;2024-02-15T02:02:55;14.6;78.6
78463;SHT31;67756;51.982;5.648;2024-02-15T02:05:29;14.6;78.8
78463;SHT31;67756;51.982;5.648;2024-02-15T02:07:58;14.5;78.9
78463;SHT31;67756;51.982;5.648;2024-02-15T02:10:31;14.5;78.9
78463;SHT31;67756;51.982;5.648;2024-02-15T02:13:01;14.5;79.1
78463;SHT31;67756;51.982;5.648;2024-02-15T02:15:32;14.5;79.4
78463;SHT31;67756;51.982;5.648;2024-02-15T02:18:01;14.5;79.4
78463;SHT31;67756;51.982;5.648;2024-02-15T02:20:32;14.6;79.2
78463;SHT31;67756;51.982;5.648;2024-02-15T02:23:05;14.6;79.1
78463;SHT31;67756;51.982;5.648;2024-02-15T02:25:36;14.7;78.3
78463;SHT31;67756;51.982;5.648;2024-02-15T02:28:06;14.7;78.0
78463;SHT31;67756;51.982;5.648;2024-02-15T02:30:35;14.7;78.0
78463;SHT31;67756;51.982;5.648;2024-02-15T02:33:03;14.7;78.0
78463;SHT31;67756;51.982;5.648;2024-02-15T02:35:36;14.7;77.9
78463;SHT31;67756;51.982;5.648;2024-02-15T02:38:06;14.7;77.8
78463;SHT31;67756;51.982;5.648;2024-02-15T02:40:34;14.7;77.8
78463;SHT31;67756;51.982;5.648;2024-02-15T02:43:03;14.6;78.1
78463;SHT31;67756;51.982;5.648;2024-02-15T02:45:32;14.7;78.2
78463;SHT31;67756;51.982;5.648;2024-02-15T02:48:05;14.7;78.1
78463;SHT31;67756;51.982;5.648;2024-02-15T02:50:34;14.7;77.8
78463;SHT31;67756;51.982;5.648;2024-02-15T02:53:03;14.7;77.6
78463;SHT31;67756;51.982;5.648;2024-02-15T02:55:31;14.7;77.4
78463;SHT31;67756;51.982;5.648;2024-02-15T02:58:00;14.7;77.5
78463;SHT31;67756;51.982;5.648;2024-02-15T03:00:30;14.7;77.5
78463;SHT31;67756;51.982;5.648;2024-02-15T03:02:59;14.6;77.6
78463;SHT31;67756;51.982;5.648;2024-02-15T03:05:28;14.6;77.7
78463;SHT31;67756;51.982;5.648;2024-02-15T03:07:56;14.6;77.9
78463;SHT31;67756;51.982;5.648;2024-02-15T03:10:25;14.5;78.1
78463;SHT31;67756;51.982;5.648;2024-02-15T03:12:54;14.5;78.1
78463;SHT31;67756;51.982;5.648;2024-02-15T03:15:22;14.5;78.2
78463;SHT31;67756;51.982;5.648;2024-02-15T03:17:51;14.5;78.3
78463;SHT31;67756;51.982;5.648;2024-02-15T03:20:19;14.5;78.3
78463;SHT31;67756;51.982;5.648;2024-02-15T03:22:55;14.4;78.4
78463;SHT31;67756;51.982;5.648;2024-02-15T03:25:26;14.4;78.5
78463;SHT31;67756;51.982;5.648;2024-02-15T03:27:58;14.5;78.8
78463;SHT31;67756;51.982;5.648;2024-02-15T03:30:32;14.6;78.4
78463;SHT31;67756;51.982;5.648;2024-02-15T03:33:02;14.6;77.8
78463;SHT31;67756;51.982;5.648;2024-02-15T03:35:31;14.6;77.4
78463;SHT31;67756;51.982;5.648;2024-02-15T03:38:02;14.6;77.4
78463;SHT31;67756;51.982;5.648;2024-02-15T03:40:31;14.7;77.4
78463;SHT31;67756;51.982;5.648;2024-02-15T03:43:00;14.7;77.1
78463;SHT31;67756;51.982;5.648;2024-02-15T03:45:33;14.7;76.8
78463;SHT31;67756;51.982;5.648;2024-02-15T03:48:01;14.7;76.8
78463;SHT31;67756;51.982;5.648;2024-02-15T03:50:31;14.7;76.7
78463;SHT31;67756;51.982;5.648;2024-02-15T03:53:02;14.7;76.7
78463;SHT31;67756;51.982;5.648;2024-02-15T03:55:30;14.7;77.0
78463;SHT31;67756;51.982;5.648;2024-02-15T03:58:01;14.8;77.0
78463;SHT31;67756;51.982;5.648;2024-02-15T04:00:29;14.8;76.4
78463;SHT31;67756;51.982;5.648;2024-02-15T04:02:58;14.9;76.2
78463;SHT31;67756;51.982;5.648;2024-02-15T04:05:29;14.8;75.9
78463;SHT31;67756;51.982;5.648;2024-02-15T04:07:57;14.8;76.2
78463;SHT31;67756;51.982;5.648;2024-02-15T04:10:31;14.8;76.4
78463;SHT31;67756;51.982;5.648;2024-02-15T04:12:59;14.9;75.8
78463;SHT31;67756;51.982;5.648;2024-02-15T04:15:28;14.8;75.9
78463;SHT31;67756;51.982;5.648;2024-02-15T04:17:57;14.8;76.0
78463;SHT31;67756;51.982;5.648;2024-02-15T04:20:26;14.8;76.1
78463;SHT31;67756;51.982;5.648;2024-02-15T04:22:55;14.8;76.1
78463;SHT31;67756;51.982;5.648;2024-02-15T04:25:26;14.7;76.4
78463;SHT31;67756;51.982;5.648;2024-02-15T04:27:55;14.7;76.8
78463;SHT31;67756;51.982;5.648;2024-02-15T04:30:28;14.7;77.1
78463;SHT31;67756;51.982;5.648;2024-02-15T04:32:57;14.7;77.1
78463;SHT31;67756;51.982;5.648;2024-02-15T04:35:30;14.8;76.9
78463;SHT31;67756;51.982;5.648;2024-02-15T04:38:05;14.9;76.7
78463;SHT31;67756;51.982;5.648;2024-02-15T04:40:38;14.9;76.5
78463;SHT31;67756;51.982;5.648;2024-02-15T04:43:09;14.9;76.3
78463;SHT31;67756;51.982;5.648;2024-02-15T04:45:37;15.0;76.1
78463;SHT31;67756;51.982;5.648;2024-02-15T04:48:08;15.0;76.0
78463;SHT31;67756;51.982;5.648;2024-02-15T04:50:40;15.0;75.6
78463;SHT31;67756;51.982;5.648;2024-02-15T04:53:09;14.9;75.6
78463;SHT31;67756;51.982;5.648;2024-02-15T04:55:38;14.9;75.9
78463;SHT31;67756;51.982;5.648;2024-02-15T04:58:07;14.8;76.2
78463;SHT31;67756;51.982;5.648;2024-02-15T05:00:37;14.6;76.8
78463;SHT31;67756;51.982;5.648;2024-02-15T05:03:05;14.5;77.3
78463;SHT31;67756;51.982;5.648;2024-02-15T05:05:34;14.4;77.9
78463;SHT31;67756;51.982;5.648;2024-02-15T05:08:05;14.4;78.3
78463;SHT31;67756;51.982;5.648;2024-02-15T05:10:35;14.3;78.8
78463;SHT31;67756;51.982;5.648;2024-02-15T05:13:05;14.2;79.2
78463;SHT31;67756;51.982;5.648;2024-02-15T05:15:34;14.2;79.4
78463;SHT31;67756;51.982;5.648;2024-02-15T05:18:03;14.1;79.7
78463;SHT31;67756;51.982;5.648;2024-02-15T05:20:34;14.1;80.1
78463;SHT31;67756;51.982;5.648;2024-02-15T05:23:05;14.0;80.5
78463;SHT31;67756;51.982;5.648;2024-02-15T05:25:33;13.9;80.9
78463;SHT31;67756;51.982;5.648;2024-02-15T05:28:02;13.9;81.2
78463;SHT31;67756;51.982;5.648;2024-02-15T05:30:33;13.8;81.7
78463;SHT31;67756;51.982;5.648;2024-02-15T05:33:06;13.8;82.1
78463;SHT31;67756;51.982;5.648;2024-02-15T05:35:36;13.7;82.4
78463;SHT31;67756;51.982;5.648;2024-02-15T05:38:06;13.7;82.7
78463;SHT31;67756;51.982;5.648;2024-02-15T05:40:36;13.7;82.7
78463;SHT31;67756;51.982;5.648;2024-02-15T05:43:06;13.7;83.4
78463;SHT31;67756;51.982;5.648;2024-02-15T05:45:35;13.7;83.1
78463;SHT31;67756;51.982;5.648;2024-02-15T05:48:06;13.7;82.9
78463;SHT31;67756;51.982;5.648;2024-02-15T05:50:36;13.7;82.8
78463;SHT31;67756;51.982;5.648;2024-02-15T05:53:08;13.7;83.0
78463;SHT31;67756;51.982;5.648;2024-02-15T05:55:37;13.8;83.2
78463;SHT31;67756;51.982;5.648;2024-02-15T05:58:09;13.8;82.9
78463;SHT31;67756;51.982;5.648;2024-02-15T06:00:43;13.9;82.4
78463;SHT31;67756;51.982;5.648;2024-02-15T06:03:16;13.9;82.1
78463;SHT31;67756;51.982;5.648;2024-02-15T06:05:45;13.9;82.3
78463;SHT31;67756;51.982;5.648;2024-02-15T06:08:14;13.8;82.4
78463;SHT31;67756;51.982;5.648;2024-02-15T06:10:43;13.8;82.6
78463;SHT31;67756;51.982;5.648;2024-02-15T06:13:13;13.8;82.7
78463;SHT31;67756;51.982;5.648;2024-02-15T06:15:42;13.8;82.7
78463;SHT31;67756;51.982;5.648;2024-02-15T06:18:12;13.8;82.9
78463;SHT31;67756;51.982;5.648;2024-02-15T06:20:42;13.8;82.8
78463;SHT31;67756;51.982;5.648;2024-02-15T06:23:15;13.8;82.9
78463;SHT31;67756;51.982;5.648;2024-02-15T06:25:44;13.8;82.9
78463;SHT31;67756;51.982;5.648;2024-02-15T06:28:14;13.8;82.8
78463;SHT31;67756;51.982;5.648;2024-02-15T06:30:52;13.8;82.8
78463;SHT31;67756;51.982;5.648;2024-02-15T06:33:37;13.7;82.8
78463;SHT31;67756;51.982;5.648;2024-02-15T06:38:18;13.7;83.3
78463;SHT31;67756;51.982;5.648;2024-02-15T06:41:04;13.8;83.4
78463;SHT31;67756;51.982;5.648;2024-02-15T06:43:32;13.8;82.9
78463;SHT31;67756;51.982;5.648;2024-02-15T06:46:03;13.8;82.8
78463;SHT31;67756;51.982;5.648;2024-02-15T06:48:35;13.8;82.7
78463;SHT31;67756;51.982;5.648;2024-02-15T06:51:03;13.8;82.8
78463;SHT31;67756;51.982;5.648;2024-02-15T06:53:34;13.8;82.9
78463;SHT31;67756;51.982;5.648;2024-02-15T06:56:04;13.8;82.8
78463;SHT31;67756;51.982;5.648;2024-02-15T06:58:33;13.8;82.8
78463;SHT31;67756;51.982;5.648;2024-02-15T07:01:01;13.7;83.0
78463;SHT31;67756;51.982;5.648;2024-02-15T07:03:31;13.7;83.1
78463;SHT31;67756;51.982;5.648;2024-02-15T07:06:01;13.7;83.3
78463;SHT31;67756;51.982;5.648;2024-02-15T07:08:31;13.7;83.4
78463;SHT31;67756;51.982;5.648;2024-02-15T07:10:59;13.8;83.3
78463;SHT31;67756;51.982;5.648;2024-02-15T07:13:28;13.8;83.2
78463;SHT31;67756;51.982;5.648;2024-02-15T07:15:57;13.8;83.1
78463;SHT31;67756;51.982;5.648;2024-02-15T07:18:25;13.8;82.9
78463;SHT31;67756;51.982;5.648;2024-02-15T07:20:54;13.8;83.0
78463;SHT31;67756;51.982;5.648;2024-02-15T07:23:25;13.8;83.1
78463;SHT31;67756;51.982;5.648;2024-02-15T07:25:53;13.8;83.1
78463;SHT31;67756;51.982;5.648;2024-02-15T07:28:24;13.8;83.1
78463;SHT31;67756;51.982;5.648;2024-02-15T07:30:54;13.8;83.0
78463;SHT31;67756;51.982;5.648;2024-02-15T07:33:23;13.8;82.9
78463;SHT31;67756;51.982;5.648;2024-02-15T07:35:52;13.8;82.9
78463;SHT31;67756;51.982;5.648;2024-02-15T07:38:20;13.8;83.3
78463;SHT31;67756;51.982;5.648;2024-02-15T07:40:53;13.9;83.5
78463;SHT31;67756;51.982;5.648;2024-02-15T07:43:23;13.9;83.3
78463;SHT31;67756;51.982;5.648;2024-02-15T07:45:55;14.0;83.0
78463;SHT31;67756;51.982;5.648;2024-02-15T07:48:24;14.1;82.5
78463;SHT31;67756;51.982;5.648;2024-02-15T07:50:53;14.1;82.2
78463;SHT31;67756;51.982;5.648;2024-02-15T07:53:21;14.1;82.1
78463;SHT31;67756;51.982;5.648;2024-02-15T07:55:51;14.0;82.2
78463;SHT31;67756;51.982;5.648;2024-02-15T07:58:19;14.0;82.4
78463;SHT31;67756;51.982;5.648;2024-02-15T08:00:51;14.0;83.0
78463;SHT31;67756;51.982;5.648;2024-02-15T08:03:26;14.0;82.8
78463;SHT31;67756;51.982;5.648;2024-02-15T08:05:56;14.0;82.7
78463;SHT31;67756;51.982;5.648;2024-02-15T08:08:25;14.0;82.6
78463;SHT31;67756;51.982;5.648;2024-02-15T08:10:54;14.0;82.8
78463;SHT31;67756;51.982;5.648;2024-02-15T08:13:23;14.0;83.1
78463;SHT31;67756;51.982;5.648;2024-02-15T08:15:57;14.1;83.0
78463;SHT31;67756;51.982;5.648;2024-02-15T08:18:27;14.1;82.6
78463;SHT31;67756;51.982;5.648;2024-02-15T08:20:56;14.1;82.7
78463;SHT31;67756;51.982;5.648;2024-02-15T08:23:25;14.1;82.7
78463;SHT31;67756;51.982;5.648;2024-02-15T08:25:54;14.1;82.8
78463;SHT31;67756;51.982;5.648;2024-02-15T08:28:24;14.2;82.6
78463;SHT31;67756;51.982;5.648;2024-02-15T08:30:55;14.2;82.5
78463;SHT31;67756;51.982;5.648;2024-02-15T08:33:25;14.2;82.5
78463;SHT31;67756;51.982;5.648;2024-02-15T08:35:55;14.2;82.6
78463;SHT31;67756;51.982;5.648;2024-02-15T08:38:27;14.3;82.4
78463;SHT31;67756;51.982;5.648;2024-02-15T08:40:56;14.3;82.5
78463;SHT31;67756;51.982;5.648;2024-02-15T08:43:25;14.3;82.3
78463;SHT31;67756;51.982;5.648;2024-02-15T08:45:55;14.4;82.0
78463;SHT31;67756;51.982;5.648;2024-02-15T08:48:27;14.4;82.1
78463;SHT31;67756;51.982;5.648;2024-02-15T08:50:58;14.4;81.8
78463;SHT31;67756;51.982;5.648;2024-02-15T08:53:28;14.4;81.9
78463;SHT31;67756;51.982;5.648;2024-02-15T08:56:06;14.4;82.0
78463;SHT31;67756;51.982;5.648;2024-02-15T08:58:39;14.4;81.9
78463;SHT31;67756;51.982;5.648;2024-02-15T09:01:09;14.5;81.8
78463;SHT31;67756;51.982;5.648;2024-02-15T09:03:39;14.5;81.3
78463;SHT31;67756;51.982;5.648;2024-02-15T09:06:11;14.5;81.4
78463;SHT31;67756;51.982;5.648;2024-02-15T09:08:41;14.5;81.5
78463;SHT31;67756;51.982;5.648;2024-02-15T09:11:10;14.4;81.3
78463;SHT31;67756;51.982;5.648;2024-02-15T09:13:39;14.4;81.5
78463;SHT31;67756;51.982;5.648;2024-02-15T09:16:10;14.3;81.7
78463;SHT31;67756;51.982;5.648;2024-02-15T09:18:39;14.2;82.1
78463;SHT31;67756;51.982;5.648;2024-02-15T09:21:11;14.1;82.5
78463;SHT31;67756;51.982;5.648;2024-02-15T09:23:40;14.1;83.0
78463;SHT31;67756;51.982;5.648;2024-02-15T09:26:09;14.0;83.4
78463;SHT31;67756;51.982;5.648;2024-02-15T09:28:39;14.0;83.6
78463;SHT31;67756;51.982;5.648;2024-02-15T09:31:08;14.0;84.1
78463;SHT31;67756;51.982;5.648;2024-02-15T09:33:38;14.0;84.2
78463;SHT31;67756;51.982;5.648;2024-02-15T09:36:07;14.0;84.2
78463;SHT31;67756;51.982;5.648;2024-02-15T09:38:38;14.0;83.8
78463;SHT31;67756;51.982;5.648;2024-02-15T09:41:07;14.0;83.6
78463;SHT31;67756;51.982;5.648;2024-02-15T09:43:37;14.0;83.5
78463;SHT31;67756;51.982;5.648;2024-02-15T09:46:06;14.0;83.5
78463;SHT31;67756;51.982;5.648;2024-02-15T09:48:35;13.9;83.6
78463;SHT31;67756;51.982;5.648;2024-02-15T09:51:07;13.9;84.0
78463;SHT31;67756;51.982;5.648;2024-02-15T09:53:44;13.9;84.2
78463;SHT31;67756;51.982;5.648;2024-02-15T09:56:15;13.9;84.3
78463;SHT31;67756;51.982;5.648;2024-02-15T09:58:48;14.0;84.2
78463;SHT31;67756;51.982;5.648;2024-02-15T10:01:21;14.0;84.3
78463;SHT31;67756;51.982;5.648;2024-02-15T10:03:59;14.1;83.8
78463;SHT31;67756;51.982;5.648;2024-02-15T10:06:42;14.1;83.2
78463;SHT31;67756;51.982;5.648;2024-02-15T10:09:26;14.2;82.8
78463;SHT31;67756;51.982;5.648;2024-02-15T10:12:05;14.2;82.5
78463;SHT31;67756;51.982;5.648;2024-02-15T10:14:36;14.2;82.5
78463;SHT31;67756;51.982;5.648;2024-02-15T10:17:17;14.2;82.3
78463;SHT31;67756;51.982;5.648;2024-02-15T10:20:10;14.2;82.2
78463;SHT31;67756;51.982;5.648;2024-02-15T10:22:40;14.3;82.1
78463;SHT31;67756;51.982;5.648;2024-02-15T10:25:12;14.3;81.7
78463;SHT31;67756;51.982;5.648;2024-02-15T10:27:42;14.3;81.5
78463;SHT31;67756;51.982;5.648;2024-02-15T10:30:19;14.3;81.8
78463;SHT31;67756;51.982;5.648;2024-02-15T10:32:50;14.3;82.0
78463;SHT31;67756;51.982;5.648;2024-02-15T10:35:24;14.3;81.9
78463;SHT31;67756;51.982;5.648;2024-02-15T10:38:11;14.4;81.5
78463;SHT31;67756;51.982;5.648;2024-02-15T10:40:42;14.5;81.4
78463;SHT31;67756;51.982;5.648;2024-02-15T10:43:13;14.5;81.3
78463;SHT31;67756;51.982;5.648;2024-02-15T10:45:45;14.6;81.0
78463;SHT31;67756;51.982;5.648;2024-02-15T10:48:19;14.7;80.9
78463;SHT31;67756;51.982;5.648;2024-02-15T10:50:54;14.8;80.4
78463;SHT31;67756;51.982;5.648;2024-02-15T10:53:34;14.9;79.7
78463;SHT31;67756;51.982;5.648;2024-02-15T10:56:21;15.0;79.4
78463;SHT31;67756;51.982;5.648;2024-02-15T10:59:17;15.1;79.1
78463;SHT31;67756;51.982;5.648;2024-02-15T11:01:54;15.2;78.6
78463;SHT31;67756;51.982;5.648;2024-02-15T11:04:39;15.3;77.7
78463;SHT31;67756;51.982;5.648;2024-02-15T11:07:16;15.3;77.3
78463;SHT31;67756;51.982;5.648;2024-02-15T11:09:55;15.4;77.2
78463;SHT31;67756;51.982;5.648;2024-02-15T11:12:29;15.5;76.7
78463;SHT31;67756;51.982;5.648;2024-02-15T11:15:07;15.6;76.4
78463;SHT31;67756;51.982;5.648;2024-02-15T11:17:49;15.6;76.3
78463;SHT31;67756;51.982;5.648;2024-02-15T11:20:49;15.7;76.2
78463;SHT31;67756;51.982;5.648;2024-02-15T11:23:26;15.8;75.8
78463;SHT31;67756;51.982;5.648;2024-02-15T11:25:59;15.8;75.7
78463;SHT31;67756;51.982;5.648;2024-02-15T11:28:54;15.9;75.6
78463;SHT31;67756;51.982;5.648;2024-02-15T11:31:56;15.9;75.1
78463;SHT31;67756;51.982;5.648;2024-02-15T11:34:47;16.0;75.1
78463;SHT31;67756;51.982;5.648;2024-02-15T11:37:52;16.0;75.2
78463;SHT31;67756;51.982;5.648;2024-02-15T11:40:23;16.0;74.9
78463;SHT31;67756;51.982;5.648;2024-02-15T11:42:54;16.0;74.5
78463;SHT31;67756;51.982;5.648;2024-02-15T11:45:27;16.0;74.9
78463;SHT31;67756;51.982;5.648;2024-02-15T11:48:00;16.0;74.6
78463;SHT31;67756;51.982;5.648;2024-02-15T11:50:36;16.0;74.6
78463;SHT31;67756;51.982;5.648;2024-02-15T11:53:07;15.9;74.7
78463;SHT31;67756;51.982;5.648;2024-02-15T11:55:37;15.8;75.0
78463;SHT31;67756;51.982;5.648;2024-02-15T11:58:08;15.8;75.6
78463;SHT31;67756;51.982;5.648;2024-02-15T12:00:48;15.7;75.7
78463;SHT31;67756;51.982;5.648;2024-02-15T12:05:06;15.7;76.3
78463;SHT31;67756;51.982;5.648;2024-02-15T12:07:51;15.7;77.0
78463;SHT31;67756;51.982;5.648;2024-02-15T12:10:39;15.7;76.5
78463;SHT31;67756;51.982;5.648;2024-02-15T12:13:24;15.7;76.5
78463;SHT31;67756;51.982;5.648;2024-02-15T12:16:08;15.7;76.2
78463;SHT31;67756;51.982;5.648;2024-02-15T12:20:08;15.7;76.3
78463;SHT31;67756;51.982;5.648;2024-02-15T12:22:40;15.8;76.3
78463;SHT31;67756;51.982;5.648;2024-02-15T12:25:14;15.8;76.4
78463;SHT31;67756;51.982;5.648;2024-02-15T12:27:45;15.8;75.9
78463;SHT31;67756;51.982;5.648;2024-02-15T12:30:18;15.8;76.3
78463;SHT31;67756;51.982;5.648;2024-02-15T12:32:48;15.8;76.2
78463;SHT31;67756;51.982;5.648;2024-02-15T12:35:19;15.9;76.3
78463;SHT31;67756;51.982;5.648;2024-02-15T12:38:02;15.9;76.5
78463;SHT31;67756;51.982;5.648;2024-02-15T12:40:34;16.0;77.0
78463;SHT31;67756;51.982;5.648;2024-02-15T12:43:05;16.0;76.1
78463;SHT31;67756;51.982;5.648;2024-02-15T12:45:36;16.1;75.6
78463;SHT31;67756;51.982;5.648;2024-02-15T12:48:10;16.2;75.9
78463;SHT31;67756;51.982;5.648;2024-02-15T12:50:42;16.3;75.8
78463;SHT31;67756;51.982;5.648;2024-02-15T12:53:23;16.5;74.5
78463;SHT31;67756;51.982;5.648;2024-02-15T12:55:58;16.7;73.7
78463;SHT31;67756;51.982;5.648;2024-02-15T12:58:26;16.9;73.1
78463;SHT31;67756;51.982;5.648;2024-02-15T13:00:57;17.0;72.9
78463;SHT31;67756;51.982;5.648;2024-02-15T13:03:31;17.2;71.8
78463;SHT31;67756;51.982;5.648;2024-02-15T13:06:00;17.3;71.2
78463;SHT31;67756;51.982;5.648;2024-02-15T13:08:30;17.4;70.9
78463;SHT31;67756;51.982;5.648;2024-02-15T13:10:58;17.4;70.2
78463;SHT31;67756;51.982;5.648;2024-02-15T13:13:30;17.5;69.1
78463;SHT31;67756;51.982;5.648;2024-02-15T13:16:01;17.6;69.5
78463;SHT31;67756;51.982;5.648;2024-02-15T13:18:32;17.6;69.1
78463;SHT31;67756;51.982;5.648;2024-02-15T13:21:01;17.6;68.4
78463;SHT31;67756;51.982;5.648;2024-02-15T13:23:34;17.6;68.3
78463;SHT31;67756;51.982;5.648;2024-02-15T13:26:02;17.7;69.8
78463;SHT31;67756;51.982;5.648;2024-02-15T13:28:31;17.7;69.4
78463;SHT31;67756;51.982;5.648;2024-02-15T13:30:59;17.7;67.8
78463;SHT31;67756;51.982;5.648;2024-02-15T13:33:29;17.8;68.3
78463;SHT31;67756;51.982;5.648;2024-02-15T13:35:58;17.8;67.3
78463;SHT31;67756;51.982;5.648;2024-02-15T13:38:27;17.8;68.2
78463;SHT31;67756;51.982;5.648;2024-02-15T13:40:56;17.8;67.5
78463;SHT31;67756;51.982;5.648;2024-02-15T13:43:29;17.8;67.8
78463;SHT31;67756;51.982;5.648;2024-02-15T13:46:00;17.7;67.8
78463;SHT31;67756;51.982;5.648;2024-02-15T13:48:30;17.7;68.0
78463;SHT31;67756;51.982;5.648;2024-02-15T13:50:59;17.7;68.1
78463;SHT31;67756;51.982;5.648;2024-02-15T13:53:28;17.6;68.5
78463;SHT31;67756;51.982;5.648;2024-02-15T13:55:57;17.6;68.1
78463;SHT31;67756;51.982;5.648;2024-02-15T13:58:26;17.6;68.4
78463;SHT31;67756;51.982;5.648;2024-02-15T14:00:55;17.6;68.4
78463;SHT31;67756;51.982;5.648;2024-02-15T14:03:27;17.7;68.1
78463;SHT31;67756;51.982;5.648;2024-02-15T14:05:56;17.8;68.2
78463;SHT31;67756;51.982;5.648;2024-02-15T14:08:25;17.9;68.4
78463;SHT31;67756;51.982;5.648;2024-02-15T14:10:54;18.0;67.3
78463;SHT31;67756;51.982;5.648;2024-02-15T14:13:24;18.1;67.1
78463;SHT31;67756;51.982;5.648;2024-02-15T14:15:54;18.2;66.7
78463;SHT31;67756;51.982;5.648;2024-02-15T14:18:27;18.2;67.3
78463;SHT31;67756;51.982;5.648;2024-02-15T14:20:56;18.3;67.2
78463;SHT31;67756;51.982;5.648;2024-02-15T14:23:28;18.4;66.4
78463;SHT31;67756;51.982;5.648;2024-02-15T14:25:57;18.4;66.3
78463;SHT31;67756;51.982;5.648;2024-02-15T14:28:28;18.5;65.9
78463;SHT31;67756;51.982;5.648;2024-02-15T14:30:59;18.5;65.2
78463;SHT31;67756;51.982;5.648;2024-02-15T14:33:44;18.6;66.0
78463;SHT31;67756;51.982;5.648;2024-02-15T14:38:44;18.6;65.6
78463;SHT31;67756;51.982;5.648;2024-02-15T14:41:18;18.7;65.1
78463;SHT31;67756;51.982;5.648;2024-02-15T14:43:47;18.7;65.1
78463;SHT31;67756;51.982;5.648;2024-02-15T14:46:17;18.7;64.3
78463;SHT31;67756;51.982;5.648;2024-02-15T14:48:47;18.7;64.7
78463;SHT31;67756;51.982;5.648;2024-02-15T14:51:17;18.7;63.9
78463;SHT31;67756;51.982;5.648;2024-02-15T14:53:46;18.7;64.6
78463;SHT31;67756;51.982;5.648;2024-02-15T14:56:15;18.6;64.2
78463;SHT31;67756;51.982;5.648;2024-02-15T14:58:45;18.5;64.6
78463;SHT31;67756;51.982;5.648;2024-02-15T15:01:14;18.4;64.8
78463;SHT31;67756;51.982;5.648;2024-02-15T15:03:42;18.3;65.8
78463;SHT31;67756;51.982;5.648;2024-02-15T15:06:11;18.2;65.8
78463;SHT31;67756;51.982;5.648;2024-02-15T15:08:56;18.2;66.9
78463;SHT31;67756;51.982;5.648;2024-02-15T15:11:41;18.1;66.1
78463;SHT31;67756;51.982;5.648;2024-02-15T15:14:25;18.1;66.4
78463;SHT31;67756;51.982;5.648;2024-02-15T15:16:54;18.0;66.5
78463;SHT31;67756;51.982;5.648;2024-02-15T15:19:23;18.0;66.6
78463;SHT31;67756;51.982;5.648;2024-02-15T15:21:51;18.0;66.7
78463;SHT31;67756;51.982;5.648;2024-02-15T15:24:20;18.0;66.9
78463;SHT31;67756;51.982;5.648;2024-02-15T15:26:49;18.0;66.8
78463;SHT31;67756;51.982;5.648;2024-02-15T15:29:19;18.0;66.2
78463;SHT31;67756;51.982;5.648;2024-02-15T15:31:48;18.0;66.4
78463;SHT31;67756;51.982;5.648;2024-02-15T15:34:16;18.0;66.4
78463;SHT31;67756;51.982;5.648;2024-02-15T15:36:46;18.0;67.2
78463;SHT31;67756;51.982;5.648;2024-02-15T15:39:16;18.0;66.6
78463;SHT31;67756;51.982;5.648;2024-02-15T15:41:46;18.0;66.3
78463;SHT31;67756;51.982;5.648;2024-02-15T15:44:14;18.0;66.5
78463;SHT31;67756;51.982;5.648;2024-02-15T15:46:45;18.0;66.1
78463;SHT31;67756;51.982;5.648;2024-02-15T15:49:17;18.0;66.2
78463;SHT31;67756;51.982;5.648;2024-02-15T15:51:48;18.1;65.9
78463;SHT31;67756;51.982;5.648;2024-02-15T15:54:22;18.1;66.1
78463;SHT31;67756;51.982;5.648;2024-02-15T15:56:51;18.2;66.1
78463;SHT31;67756;51.982;5.648;2024-02-15T15:59:19;18.2;65.5
78463;SHT31;67756;51.982;5.648;2024-02-15T16:01:52;18.2;65.0
78463;SHT31;67756;51.982;5.648;2024-02-15T16:04:20;18.2;64.4
78463;SHT31;67756;51.982;5.648;2024-02-15T16:06:50;18.2;64.3
78463;SHT31;67756;51.982;5.648;2024-02-15T16:09:20;18.2;64.4
78463;SHT31;67756;51.982;5.648;2024-02-15T16:11:49;18.1;64.9
78463;SHT31;67756;51.982;5.648;2024-02-15T16:14:19;18.1;65.3
78463;SHT31;67756;51.982;5.648;2024-02-15T16:16:50;18.0;65.1
78463;SHT31;67756;51.982;5.648;2024-02-15T16:19:18;18.0;64.9
78463;SHT31;67756;51.982;5.648;2024-02-15T16:21:47;17.9;65.1
78463;SHT31;67756;51.982;5.648;2024-02-15T16:24:15;17.9;65.1
78463;SHT31;67756;51.982;5.648;2024-02-15T16:26:44;17.9;64.9
78463;SHT31;67756;51.982;5.648;2024-02-15T16:29:12;17.8;65.5
78463;SHT31;67756;51.982;5.648;2024-02-15T16:31:41;17.8;64.6
78463;SHT31;67756;51.982;5.648;2024-02-15T16:34:09;17.8;64.5
78463;SHT31;67756;51.982;5.648;2024-02-15T16:36:37;17.8;64.5